createdAt,value
2022-10-04T03:20:39.050Z,100.00
2022-10-04T03:23:51.553Z,100.00
2022-10-04T03:27:07.012Z,100.00
2022-10-04T03:30:20.132Z,100.00
2022-10-04T03:33:31.552Z,100.00
2022-10-04T03:36:44.371Z,100.00
2022-10-04T03:39:56.863Z,100.00
2022-10-04T03:43:07.946Z,100.00
2022-10-04T03:46:22.944Z,100.00
2022-10-04T03:49:37.461Z,100.00
2022-10-04T03:52:54.354Z,100.00
2022-10-04T03:56:13.615Z,100.00
2022-10-04T03:59:26.463Z,100.00
2022-10-04T04:02:46.190Z,100.00
2022-10-04T04:06:01.281Z,100.00
2022-10-04T04:09:22.983Z,100.00
2022-10-04T04:12:41.116Z,100.00
2022-10-04T04:15:52.663Z,100.00
2022-10-04T04:19:06.452Z,100.00
2022-10-04T04:22:19.372Z,100.00
2022-10-04T04:25:40.074Z,100.00
2022-10-04T04:28:53.916Z,100.00
2022-10-04T04:32:09.765Z,100.00
2022-10-04T04:35:26.320Z,100.00
2022-10-04T04:38:56.854Z,100.00
2022-10-04T04:42:19.606Z,100.00
2022-10-04T04:45:33.260Z,100.00
2022-10-04T04:48:46.368Z,100.00
2022-10-04T04:51:59.363Z,100.00
2022-10-04T04:55:19.432Z,100.00
2022-10-04T04:58:35.808Z,100.00
2022-10-04T06:56:36.350Z,100.00
2022-10-04T07:00:03.035Z,100.00
2022-10-04T07:03:17.748Z,100.00
2022-10-04T07:06:33.074Z,100.00
2022-10-04T07:09:45.876Z,100.00
2022-10-04T07:13:12.151Z,100.00
2022-10-04T07:16:34.256Z,100.00
2022-10-04T07:19:50.399Z,100.00
2022-10-04T07:23:07.221Z,100.00
2022-10-04T07:26:26.873Z,100.00
2022-10-04T07:29:45.942Z,100.00
2022-10-04T07:32:58.398Z,100.00
2022-10-04T07:36:13.294Z,100.00
2022-10-04T07:39:28.061Z,100.00
2022-10-04T07:42:49.677Z,100.00
2022-10-04T07:46:08.143Z,100.00
2022-10-04T07:49:20.603Z,100.00
2022-10-04T07:52:48.903Z,100.00
2022-10-04T07:56:08.907Z,100.00
2022-10-04T07:59:36.706Z,100.00
2022-10-04T08:03:12.678Z,100.00
2022-10-04T08:06:32.407Z,100.00
2022-10-04T08:09:54.226Z,100.00
2022-10-04T08:13:22.350Z,100.00
2022-10-04T08:16:38.574Z,100.00
2022-10-04T08:20:02.990Z,100.00
2022-10-04T08:23:29.501Z,100.00
2022-10-04T08:26:50.691Z,100.00
2022-10-04T08:30:11.098Z,99.49
2022-10-04T08:33:30.638Z,98.15
2022-10-04T08:36:57.539Z,97.45
2022-10-04T08:40:34.890Z,95.09
2022-10-04T08:44:13.227Z,91.82
2022-10-04T08:47:59.880Z,89.06
2022-10-04T08:51:34.153Z,87.21
2022-10-04T08:55:11.935Z,85.78
2022-10-04T08:58:42.234Z,81.96
2022-10-04T09:02:18.747Z,80.42
2022-10-04T09:05:53.703Z,76.52
2022-10-04T09:09:39.994Z,74.02
2022-10-04T09:13:05.754Z,69.63
2022-10-04T09:16:19.451Z,68.43
2022-10-04T09:19:49.447Z,66.11
2022-10-04T09:23:13.394Z,67.84
2022-10-04T09:26:25.512Z,66.64
2022-10-04T09:29:55.853Z,64.00
2022-10-04T09:33:27.212Z,63.25
2022-10-04T09:36:53.019Z,63.37
2022-10-04T09:40:34.451Z,63.28
2022-10-04T09:44:06.041Z,62.30
2022-10-04T09:47:37.698Z,62.06
2022-10-04T09:51:09.962Z,63.85
2022-10-04T09:54:41.147Z,63.71
2022-10-04T09:58:13.908Z,62.12
2022-10-04T10:01:31.667Z,60.43
2022-10-04T10:04:53.834Z,62.73
2022-10-04T10:08:18.799Z,62.29
2022-10-04T10:11:51.593Z,61.78
2022-10-04T10:15:16.922Z,62.69
2022-10-04T10:40:41.316Z,59.71
2022-10-04T10:44:08.095Z,59.68
2022-10-04T10:47:46.161Z,59.57
2022-10-04T10:51:03.734Z,60.88
2022-10-04T10:54:35.005Z,60.49
2022-10-04T10:58:08.776Z,60.95
2022-10-04T11:01:43.231Z,60.96
2022-10-04T11:09:11.030Z,60.86
2022-10-04T11:12:42.351Z,61.94
2022-10-04T11:16:19.565Z,62.02
2022-10-04T11:19:54.586Z,60.44
2022-10-04T11:23:31.252Z,60.41
2022-10-04T11:27:01.449Z,59.58
2022-10-04T11:30:23.337Z,60.24
2022-10-04T11:33:58.143Z,58.63
2022-10-04T11:37:17.126Z,59.00
2022-10-04T11:40:40.973Z,58.00
2022-10-04T11:44:15.802Z,56.73
2022-10-04T11:47:47.853Z,55.97
2022-10-04T11:51:18.356Z,55.66
2022-10-04T11:54:54.832Z,55.76
2022-10-04T11:58:14.617Z,58.05
2022-10-04T12:01:47.677Z,56.75
2022-10-04T12:05:18.111Z,57.61
2022-10-04T12:08:34.030Z,59.54
2022-10-04T12:12:20.984Z,60.42
2022-10-04T12:15:41.866Z,61.81
2022-10-04T12:19:19.779Z,62.68
2022-10-04T12:22:46.715Z,62.39
2022-10-04T12:26:22.120Z,63.24
2022-10-04T12:30:05.864Z,63.95
2022-10-04T12:33:23.823Z,65.23
2022-10-04T12:36:50.850Z,66.48
2022-10-04T12:40:20.431Z,65.02
2022-10-04T12:43:38.641Z,66.60
2022-10-04T12:46:58.221Z,66.58
2022-10-04T12:50:18.366Z,66.72
2022-10-04T12:53:39.368Z,65.76
2022-10-04T12:57:00.404Z,64.24
2022-10-04T13:00:20.278Z,62.87
2022-10-04T13:03:41.093Z,61.40
2022-10-04T13:07:08.725Z,62.25
2022-10-04T13:10:31.514Z,61.87
2022-10-04T13:14:02.020Z,62.03
2022-10-04T13:17:35.390Z,62.00
2022-10-04T13:20:54.803Z,62.65
2022-10-04T13:24:09.105Z,63.35
2022-10-04T13:27:25.137Z,65.76
2022-10-04T13:30:48.484Z,68.43
2022-10-04T13:34:12.603Z,67.71
2022-10-04T13:37:35.535Z,68.15
2022-10-04T13:41:02.565Z,68.68
2022-10-04T13:44:31.362Z,68.46
2022-10-04T13:47:57.878Z,68.09
2022-10-04T13:51:24.824Z,69.44
2022-10-04T13:54:52.653Z,70.74
2022-10-04T13:58:16.125Z,70.79
2022-10-04T14:01:46.512Z,69.35
2022-10-04T14:05:25.931Z,70.41
2022-10-04T14:08:57.528Z,70.16
2022-10-04T14:12:38.563Z,70.48
2022-10-04T14:16:01.563Z,70.78
2022-10-04T14:19:40.223Z,70.79
2022-10-04T14:23:10.127Z,71.07
2022-10-04T14:26:37.722Z,73.55
2022-10-04T14:30:07.986Z,73.02
2022-10-04T14:33:43.355Z,72.44
2022-10-04T14:37:10.602Z,72.43
2022-10-04T14:40:46.402Z,73.25
2022-10-04T14:44:25.419Z,74.10
2022-10-04T14:48:08.991Z,74.00
2022-10-04T14:51:32.204Z,74.74
2022-10-04T14:54:52.325Z,74.69
2022-10-04T14:58:18.349Z,74.88
2022-10-04T15:01:29.828Z,75.16
2022-10-04T15:05:05.395Z,74.93
2022-10-04T15:08:39.262Z,75.28
2022-10-04T15:12:25.623Z,75.75
2022-10-04T15:15:41.976Z,75.70
2022-10-04T15:18:58.687Z,77.59
2022-10-04T15:22:16.611Z,76.91
2022-10-04T15:25:40.338Z,78.31
2022-10-04T15:29:03.217Z,79.12
2022-10-04T15:32:30.710Z,78.67
2022-10-04T15:35:55.179Z,79.00
2022-10-04T15:39:24.063Z,78.53
2022-10-04T15:42:35.918Z,79.60
2022-10-04T15:46:03.043Z,78.99
2022-10-04T15:49:25.746Z,79.43
2022-10-04T15:52:54.545Z,80.23
2022-10-04T15:56:20.927Z,80.94
2022-10-04T15:59:44.265Z,82.08
2022-10-04T16:03:09.316Z,82.51
2022-10-04T16:06:26.299Z,83.43
2022-10-04T16:09:45.136Z,83.54
2022-10-04T16:13:10.694Z,84.11
2022-10-04T16:16:36.406Z,86.81
2022-10-04T16:20:02.245Z,87.49
2022-10-04T16:23:29.452Z,89.01
2022-10-04T16:30:34.569Z,91.38
2022-10-04T16:33:54.973Z,93.18
2022-10-04T16:37:16.357Z,94.24
2022-10-04T16:40:36.321Z,95.28
2022-10-04T16:43:54.759Z,95.80
2022-10-04T16:47:20.299Z,96.36
2022-10-04T16:50:57.798Z,97.58
2022-10-04T16:54:31.189Z,98.20
2022-10-04T16:57:43.511Z,98.90
2022-10-04T17:01:32.128Z,100.00
2022-10-04T17:04:55.334Z,100.00
2022-10-04T17:08:24.921Z,100.00
2022-10-04T17:11:44.307Z,100.00
2022-10-04T17:15:06.961Z,100.00
2022-10-04T17:18:27.623Z,100.00
2022-10-04T17:21:46.027Z,100.00
2022-10-04T17:25:03.358Z,100.00
2022-10-04T17:28:27.864Z,100.00
2022-10-04T17:31:46.340Z,100.00
2022-10-04T17:35:15.055Z,100.00
2022-10-04T17:38:36.506Z,100.00
2022-10-04T17:42:02.331Z,100.00
2022-10-04T17:45:29.104Z,100.00
2022-10-04T17:48:59.688Z,100.00
2022-10-04T17:52:28.393Z,100.00
2022-10-04T17:55:49.740Z,100.00
2022-10-04T17:59:00.738Z,100.00
2022-10-04T18:02:19.090Z,100.00
2022-10-04T18:05:36.204Z,100.00
2022-10-04T18:08:56.472Z,100.00
2022-10-04T18:12:17.569Z,100.00
2022-10-04T18:15:34.251Z,100.00
2022-10-04T18:18:48.009Z,100.00
2022-10-04T18:22:06.297Z,100.00
2022-10-04T18:25:23.905Z,100.00
2022-10-04T18:28:37.945Z,100.00
2022-10-04T18:31:51.240Z,100.00
2022-10-04T18:35:22.846Z,100.00
2022-10-04T18:38:39.183Z,100.00
2022-10-04T18:42:03.713Z,100.00
2022-10-04T18:45:26.215Z,100.00
2022-10-04T18:48:41.111Z,100.00
2022-10-04T18:52:03.423Z,100.00
2022-10-04T18:55:29.950Z,100.00
2022-10-04T18:59:09.786Z,100.00
2022-10-04T19:02:36.654Z,100.00
2022-10-04T19:06:01.699Z,100.00
2022-10-04T19:09:24.849Z,100.00
2022-10-04T19:12:49.319Z,100.00
2022-10-04T19:16:15.950Z,100.00
2022-10-04T19:19:58.946Z,100.00
2022-10-04T19:23:27.370Z,100.00
2022-10-04T19:26:42.641Z,100.00
2022-10-04T19:30:10.579Z,100.00
2022-10-04T19:33:28.298Z,100.00
2022-10-04T19:36:50.165Z,100.00
2022-10-04T19:40:10.920Z,100.00
2022-10-04T19:43:32.158Z,100.00
2022-10-04T19:46:48.553Z,100.00
2022-10-04T19:50:07.073Z,100.00
2022-10-04T19:53:21.499Z,100.00
2022-10-04T19:56:37.636Z,100.00
2022-10-04T19:59:51.254Z,100.00
2022-10-04T20:03:02.627Z,100.00
2022-10-04T20:06:23.035Z,100.00
2022-10-04T20:09:53.246Z,100.00
